Time;durP1;ratioP1;P1;durP2;ratioP2;P2;SDS_P1;SDS_P2;PMS_P1;PMS_P2;Temp;Humidity;BMP_temperature;BMP_pressure;BME280_temperature;BME280_humidity;BME280_pressure;Samples;Min_cycle;Max_cycle;Signal;HPM_P1;HPM_P2
2023/04/05 00:01:32;;;;;;;8.73;7.30;;;;;;;3.23;72.73;98614.72;4161824;28;20682;-85
2023/04/05 00:03:37;;;;;;;9.13;6.88;;;;;;;3.20;73.15;98613.06;4171910;28;20211;-85
2023/04/05 00:05:40;;;;;;;10.50;7.63;;;;;;;3.20;72.82;98615.66;4181401;28;20240;-85
2023/04/05 00:07:46;;;;;;;8.65;7.30;;;;;;;3.17;73.37;98610.59;4186566;28;20206;-85
2023/04/05 00:09:50;;;;;;;12.27;7.80;;;;;;;3.15;73.51;98614.13;4181748;28;20313;-85
2023/04/05 00:11:53;;;;;;;8.75;7.72;;;;;;;3.14;73.42;98602.13;4175871;28;20217;-85
2023/04/05 00:13:56;;;;;;;10.75;8.10;;;;;;;3.13;73.45;98606.44;4190700;28;20553;-85
2023/04/05 00:16:00;;;;;;;9.65;7.78;;;;;;;3.10;73.10;98606.53;4175400;28;20705;-85
2023/04/05 00:18:03;;;;;;;9.05;7.38;;;;;;;3.10;73.08;98605.72;4184784;28;20206;-85
2023/04/05 00:20:10;;;;;;;9.63;7.55;;;;;;;3.05;73.58;98602.41;4183773;28;20683;-85
2023/04/05 00:22:13;;;;;;;9.60;7.10;;;;;;;3.04;73.74;98596.41;4169430;28;20305;-85
2023/04/05 00:24:16;;;;;;;10.98;7.90;;;;;;;3.02;73.87;98598.22;4187911;28;20293;-85
2023/04/05 00:26:20;;;;;;;9.73;7.93;;;;;;;3.02;73.58;98598.22;4169645;28;20206;-85
2023/04/05 00:28:28;;;;;;;9.27;7.93;;;;;;;3.00;73.79;98589.66;4168627;28;20280;-85
2023/04/05 00:30:32;;;;;;;10.80;7.75;;;;;;;3.01;73.83;98588.78;4175925;28;20762;-85
2023/04/05 00:32:35;;;;;;;9.98;8.13;;;;;;;2.96;73.72;98585.53;4171548;28;20249;-85
2023/04/05 00:34:39;;;;;;;10.02;8.23;;;;;;;2.96;73.98;98588.09;4177564;28;20260;-85
2023/04/05 00:36:43;;;;;;;11.02;7.85;;;;;;;2.97;73.56;98576.88;4192305;28;20206;-85
2023/04/05 00:38:48;;;;;;;9.00;7.88;;;;;;;3.00;73.38;98583.69;4180349;28;20786;-85
2023/04/05 00:40:51;;;;;;;9.15;7.43;;;;;;;3.00;72.99;98579.38;4184699;28;20218;-85
2023/04/05 00:42:54;;;;;;;8.40;6.43;;;;;;;3.01;71.30;98575.06;4168114;28;20224;-85
2023/04/05 00:44:57;;;;;;;8.90;7.00;;;;;;;3.12;70.58;98573.00;4166376;28;20213;-85
2023/04/05 00:47:01;;;;;;;7.50;6.68;;;;;;;3.13;71.25;98559.22;4161251;28;20210;-85
2023/04/05 00:49:05;;;;;;;10.13;7.65;;;;;;;3.14;71.39;98568.63;4185457;28;20763;-85
2023/04/05 00:51:10;;;;;;;10.40;7.00;;;;;;;3.16;71.41;98559.97;4166461;28;20203;-85
2023/04/05 00:53:18;;;;;;;8.63;6.85;;;;;;;3.18;70.50;98568.50;4185296;28;20210;-85
2023/04/05 00:55:21;;;;;;;9.35;5.95;;;;;;;3.23;69.66;98565.78;4186823;28;20295;-85
2023/04/05 00:57:25;;;;;;;8.15;6.65;;;;;;;3.23;69.18;98570.91;4183408;28;20205;-85
2023/04/05 00:59:28;;;;;;;6.72;5.90;;;;;;;3.14;69.11;98566.88;4168912;28;20588;-85
2023/04/05 01:01:33;;;;;;;7.05;5.95;;;;;;;3.22;68.73;98558.91;4161510;28;20322;-85
2023/04/05 01:03:38;;;;;;;6.43;5.40;;;;;;;3.24;68.04;98559.72;4173792;28;20243;-85
2023/04/05 01:05:46;;;;;;;9.55;7.05;;;;;;;3.21;67.85;98557.25;4187138;28;20606;-85
2023/04/05 01:07:52;;;;;;;6.95;5.30;;;;;;;3.26;67.42;98551.03;4182151;28;20573;-85
2023/04/05 01:09:58;;;;;;;10.18;5.60;;;;;;;3.29;67.23;98550.94;4200863;28;20197;-85
2023/04/05 01:12:05;;;;;;;7.55;5.65;;;;;;;3.35;66.49;98556.75;4184327;28;20706;-85
2023/04/05 01:14:09;;;;;;;7.43;5.38;;;;;;;3.32;66.72;98546.56;4166287;28;20202;-85
2023/04/05 01:16:13;;;;;;;8.88;6.30;;;;;;;3.25;67.87;98548.50;4201726;28;20673;-85
2023/04/05 01:18:16;;;;;;;7.13;5.95;;;;;;;3.13;67.91;98543.75;4166675;28;20211;-85
2023/04/05 01:20:21;;;;;;;8.38;6.07;;;;;;;3.09;68.56;98547.34;4169408;28;20210;-85
2023/04/05 01:22:54;;;;;;;10.18;6.65;;;;;;;3.05;68.66;98535.44;4170425;28;20202;-85
2023/04/05 01:25:18;;;;;;;9.65;7.50;;;;;;;3.07;68.99;98539.66;4183360;28;20285;-85
2023/04/05 01:27:22;;;;;;;11.63;7.95;;;;;;;3.03;70.18;98526.94;4185350;28;20655;-85
2023/04/05 01:29:44;;;;;;;10.65;7.45;;;;;;;2.97;71.15;98527.94;4172456;28;20281;-84
2023/04/05 01:31:50;;;;;;;9.70;7.35;;;;;;;2.94;71.58;98527.22;4179482;28;20323;-85
2023/04/05 01:33:59;;;;;;;10.93;7.22;;;;;;;2.85;71.36;98519.78;4181346;28;20551;-84
2023/04/05 01:36:09;;;;;;;9.35;7.75;;;;;;;2.82;71.67;98519.88;4164719;28;20200;-84
2023/04/05 01:38:16;;;;;;;7.85;7.05;;;;;;;2.79;71.82;98522.53;4170309;28;20214;-84
2023/04/05 01:40:20;;;;;;;10.82;7.47;;;;;;;2.78;72.14;98522.59;4169248;28;20210;-84
2023/04/05 01:42:25;;;;;;;10.98;7.55;;;;;;;2.78;71.59;98522.59;4188963;28;20581;-84
2023/04/05 01:44:29;;;;;;;9.45;7.55;;;;;;;2.75;72.46;98526.09;4192185;28;20212;-84
2023/04/05 01:46:32;;;;;;;11.43;7.80;;;;;;;2.75;72.31;98515.78;4174059;28;20237;-84
2023/04/05 01:48:36;;;;;;;11.38;8.45;;;;;;;2.68;72.54;98519.47;4187562;28;20292;-84
2023/04/05 01:50:39;;;;;;;12.55;7.82;;;;;;;2.68;73.04;98524.63;4188751;28;20335;-84
2023/04/05 01:52:42;;;;;;;13.23;8.88;;;;;;;2.67;73.27;98519.50;4191168;28;20241;-84
2023/04/05 01:54:45;;;;;;;11.07;8.02;;;;;;;2.62;73.28;98519.66;4188228;28;20240;-84
2023/04/05 01:56:48;;;;;;;11.20;8.85;;;;;;;2.60;73.52;98518.00;4170440;28;21394;-84
2023/04/05 01:58:51;;;;;;;10.90;8.23;;;;;;;2.61;73.63;98517.13;4175138;28;20252;-84
2023/04/05 02:00:56;;;;;;;10.45;8.13;;;;;;;2.59;73.50;98522.31;4189711;28;20808;-84
2023/04/05 02:03:00;;;;;;;17.35;9.18;;;;;;;2.56;73.79;98512.13;4179758;28;20206;-84
2023/04/05 02:05:03;;;;;;;12.43;9.50;;;;;;;2.55;74.07;98518.13;4169690;28;20796;-84
2023/04/05 02:07:06;;;;;;;10.70;8.45;;;;;;;2.51;74.02;98511.41;4188766;28;20311;-84
2023/04/05 02:09:09;;;;;;;13.02;9.02;;;;;;;2.53;74.33;98508.81;4187044;28;20201;-84
2023/04/05 02:11:12;;;;;;;12.20;8.55;;;;;;;2.50;74.44;98503.75;4171917;28;20307;-85
2023/04/05 02:13:15;;;;;;;14.40;8.95;;;;;;;2.49;74.62;98510.59;4170370;28;20685;-85
2023/04/05 02:15:19;;;;;;;12.45;9.00;;;;;;;2.48;74.32;98508.94;4181531;28;20209;-85
2023/04/05 02:17:23;;;;;;;11.32;8.80;;;;;;;2.49;74.62;98507.19;4181609;28;20202;-84
2023/04/05 02:19:28;;;;;;;12.00;8.70;;;;;;;2.48;74.94;98505.50;4174257;28;20310;-84
2023/04/05 02:21:31;;;;;;;13.50;9.40;;;;;;;2.47;74.63;98501.25;4173375;28;20280;-84
2023/04/05 02:23:35;;;;;;;11.07;8.77;;;;;;;2.47;74.81;98509.81;4179125;28;20639;-84
2023/04/05 02:25:38;;;;;;;14.43;8.70;;;;;;;2.45;74.89;98510.72;4171406;28;20244;-84
2023/04/05 02:27:41;;;;;;;12.68;9.27;;;;;;;2.43;74.88;98508.22;4170210;28;20202;-85
2023/04/05 02:29:44;;;;;;;12.18;9.00;;;;;;;2.41;74.58;98515.13;4185057;28;20221;-84
2023/04/05 02:31:49;;;;;;;12.38;9.60;;;;;;;2.41;74.80;98504.03;4186668;28;20556;-85
2023/04/05 02:33:54;;;;;;;11.40;8.90;;;;;;;2.39;75.04;98505.78;4183331;28;20198;-84
2023/04/05 02:35:57;;;;;;;12.10;9.90;;;;;;;2.33;75.22;98501.66;4167024;28;20206;-84
2023/04/05 02:38:01;;;;;;;14.32;9.55;;;;;;;2.31;74.86;98506.91;4175096;28;20203;-84
2023/04/05 02:40:08;;;;;;;11.45;9.40;;;;;;;2.28;75.13;98497.53;4180446;28;20225;-85
2023/04/05 02:42:14;;;;;;;12.25;9.75;;;;;;;2.30;75.24;98494.91;4180677;28;20229;-84
2023/04/05 02:44:17;;;;;;;14.57;9.63;;;;;;;2.27;75.31;98490.72;4180161;28;20309;-84
2023/04/05 02:46:20;;;;;;;13.63;9.43;;;;;;;2.28;75.44;98491.56;4183511;28;20209;-85
2023/04/05 02:48:24;;;;;;;14.25;9.40;;;;;;;2.27;75.51;98487.28;4180719;28;20612;-85
2023/04/05 02:50:29;;;;;;;12.98;9.07;;;;;;;2.27;75.68;98492.44;4162572;28;20221;-84
2023/04/05 02:52:33;;;;;;;17.40;8.68;;;;;;;2.28;75.69;98497.53;4176128;28;20399;-85
2023/04/05 02:54:36;;;;;;;12.52;9.02;;;;;;;2.26;76.05;98493.34;4177687;28;20298;-85
2023/04/05 02:56:39;;;;;;;12.45;9.55;;;;;;;2.25;75.59;98483.94;4188553;28;20240;-85
2023/04/05 02:58:48;;;;;;;21.27;9.90;;;;;;;2.22;75.45;98494.31;4189708;28;20251;-85
2023/04/05 03:00:56;;;;;;;15.07;9.77;;;;;;;2.21;75.49;98495.19;4178848;28;20622;-85
2023/04/05 03:03:05;;;;;;;12.02;8.85;;;;;;;2.22;75.80;98489.16;4180554;28;20214;-85
2023/04/05 03:05:17;;;;;;;10.05;8.95;;;;;;;2.22;75.49;98484.84;4166465;28;20217;-85
2023/04/05 03:07:26;;;;;;;13.82;10.55;;;;;;;2.17;75.99;98483.31;4184863;28;20216;-84
2023/04/05 03:09:32;;;;;;;12.60;9.85;;;;;;;2.17;75.66;98481.59;4184258;28;20205;-84
2023/04/05 03:11:40;;;;;;;15.93;10.30;;;;;;;2.15;76.08;98482.50;4173117;28;20202;-85
2023/04/05 03:13:44;;;;;;;12.25;8.70;;;;;;;2.10;76.15;98479.22;4162094;28;20240;-84
2023/04/05 03:15:55;;;;;;;11.93;9.57;;;;;;;2.07;76.38;98481.91;4185520;28;20201;-84
2023/04/05 03:18:00;;;;;;;12.95;10.18;;;;;;;2.04;76.24;98482.81;4161884;28;20221;-84
2023/04/05 03:20:07;;;;;;;15.40;10.85;;;;;;;2.01;76.38;98475.19;4177955;28;20644;-84
2023/04/05 03:22:11;;;;;;;12.43;9.25;;;;;;;1.99;76.72;98478.72;4184113;28;20313;-84
2023/04/05 03:24:15;;;;;;;13.15;10.40;;;;;;;1.95;76.70;98475.38;4182025;28;20233;-84
2023/04/05 03:26:19;;;;;;;14.10;10.80;;;;;;;1.94;76.91;98481.41;4181771;28;20218;-84
2023/04/05 03:28:26;;;;;;;10.88;9.07;;;;;;;1.93;76.74;98479.72;4169300;28;20702;-85
2023/04/05 03:30:34;;;;;;;14.88;9.88;;;;;;;1.92;76.31;98477.19;4172219;28;20205;-84
2023/04/05 03:32:48;;;;;;;18.50;10.50;;;;;;;1.86;77.07;98479.94;4192675;28;20237;-85
2023/04/05 03:35:09;;;;;;;12.65;9.82;;;;;;;1.83;76.49;98474.03;4183281;28;20214;-85
2023/04/05 03:37:13;;;;;;;13.57;9.43;;;;;;;1.78;76.26;98474.16;4171362;28;20664;-85
2023/04/05 03:39:23;;;;;;;12.90;9.88;;;;;;;1.78;77.05;98474.16;4193674;28;20215;-85
2023/04/05 03:41:27;;;;;;;12.77;9.93;;;;;;;1.74;76.77;98477.69;4184872;28;20237;-85
2023/04/05 03:43:31;;;;;;;16.50;10.30;;;;;;;1.70;77.36;98470.13;4183156;28;20249;-85
2023/04/05 03:45:35;;;;;;;13.23;9.60;;;;;;;1.72;77.79;98478.66;4165987;28;20747;-85
2023/04/05 03:47:37;;;;;;;12.77;10.05;;;;;;;1.77;77.67;98474.22;4192549;28;20251;-85
2023/04/05 03:49:42;;;;;;;14.00;9.65;;;;;;;1.76;77.74;98475.09;4172170;28;20214;-85
2023/04/05 03:51:45;;;;;;;13.88;9.40;;;;;;;1.73;77.64;98476.03;4175044;28;20214;-84
2023/04/05 03:53:49;;;;;;;11.57;8.65;;;;;;;1.71;77.53;98475.22;4188337;28;20213;-85
2023/04/05 03:55:54;;;;;;;13.85;10.10;;;;;;;1.70;77.37;98476.13;4183488;28;20206;-85
2023/04/05 03:58:15;;;;;;;15.55;10.35;;;;;;;1.66;77.46;98477.06;4185065;28;20213;-85
2023/04/05 04:00:19;;;;;;;11.68;9.43;;;;;;;1.64;77.53;98485.69;4184428;28;20605;-84
2023/04/05 04:02:38;;;;;;;13.25;9.52;;;;;;;1.64;77.40;98478.00;4185667;28;20548;-84
2023/04/05 04:04:41;;;;;;;12.63;9.85;;;;;;;1.62;77.11;98475.47;4161165;28;20647;-84
2023/04/05 04:06:44;;;;;;;14.85;9.80;;;;;;;1.61;77.48;98478.06;4172407;28;20206;-84
2023/04/05 04:08:49;;;;;;;11.73;10.02;;;;;;;1.59;77.69;98472.97;4180917;28;20316;-84
2023/04/05 04:10:54;;;;;;;13.18;9.23;;;;;;;1.60;77.46;98479.81;4181094;28;20202;-84
2023/04/05 04:13:03;;;;;;;12.27;9.70;;;;;;;1.59;77.58;98479.84;4170664;28;20262;-84
2023/04/05 04:15:09;;;;;;;18.70;11.25;;;;;;;1.57;77.56;98479.06;4172774;28;20770;-84
2023/04/05 04:17:27;;;;;;;15.07;9.73;;;;;;;1.56;77.10;98477.38;4174041;28;20209;-84
2023/04/05 04:19:49;;;;;;;12.70;9.02;;;;;;;1.54;77.72;98469.69;4182708;28;20205;-84
2023/04/05 04:22:21;;;;;;;14.05;10.00;;;;;;;1.52;77.19;98481.75;4187457;28;20208;-84
2023/04/05 04:24:26;;;;;;;13.05;9.60;;;;;;;1.50;77.28;98477.53;4184269;28;20212;-84
2023/04/05 04:26:36;;;;;;;14.50;10.60;;;;;;;1.49;77.71;98481.00;4183213;28;20252;-84
2023/04/05 04:29:06;;;;;;;13.32;9.75;;;;;;;1.46;77.45;98481.91;4183845;28;20206;-84
2023/04/05 04:31:21;;;;;;;15.35;9.90;;;;;;;1.47;77.34;98483.59;4178760;28;20650;-84
2023/04/05 04:33:49;;;;;;;13.20;9.50;;;;;;;1.45;77.50;98479.38;4191789;28;20669;-84
2023/04/05 04:36:25;;;;;;;18.45;11.07;;;;;;;1.42;77.39;98485.44;4192351;28;20212;-84
2023/04/05 04:38:53;;;;;;;13.80;10.10;;;;;;;1.39;77.58;98481.28;4177489;28;20240;-84
2023/04/05 04:41:01;;;;;;;13.95;9.55;;;;;;;1.29;77.36;98477.25;4181045;28;22123;-84
2023/04/05 04:43:26;;;;;;;14.55;10.15;;;;;;;1.26;77.75;98474.75;4180485;28;20336;-84
2023/04/05 04:45:55;;;;;;;14.85;9.93;;;;;;;1.26;78.21;98474.75;4180156;28;20212;-84
2023/04/05 04:48:22;;;;;;;16.27;11.10;;;;;;;1.31;77.69;98480.63;4174090;28;20300;-84
2023/04/05 04:50:32;;;;;;;12.80;10.65;;;;;;;1.30;77.23;98484.09;4176375;28;20267;-84
2023/04/05 04:52:35;;;;;;;14.65;11.00;;;;;;;1.29;78.08;98488.34;4184606;28;20574;-84
2023/04/05 04:54:41;;;;;;;15.05;10.80;;;;;;;1.33;77.91;98484.84;4170819;28;20208;-84
2023/04/05 04:56:44;;;;;;;13.48;9.95;;;;;;;1.34;77.61;98481.41;4184870;28;20685;-84
2023/04/05 04:58:51;;;;;;;14.13;9.52;;;;;;;1.40;77.21;98482.06;4182453;28;20208;-84
2023/04/05 05:00:55;;;;;;;13.85;9.20;;;;;;;1.43;77.41;98481.16;4183447;28;20201;-84
2023/04/05 05:02:59;;;;;;;12.52;9.60;;;;;;;1.41;77.65;98483.78;4187009;28;20267;-84
2023/04/05 05:05:03;;;;;;;13.20;10.45;;;;;;;1.38;77.81;98489.84;4180284;28;20312;-84
2023/04/05 05:07:06;;;;;;;12.27;9.75;;;;;;;1.40;77.67;98484.63;4185801;28;20210;-84
2023/04/05 05:09:09;;;;;;;12.68;10.18;;;;;;;1.39;77.72;98480.38;4184524;28;20247;-84
2023/04/05 05:11:21;;;;;;;17.63;10.23;;;;;;;1.34;77.92;98489.09;4167569;28;20215;-84
2023/04/05 05:13:24;;;;;;;13.95;10.05;;;;;;;1.34;77.67;98494.25;4170287;28;20198;-84
2023/04/05 05:15:29;;;;;;;15.48;10.90;;;;;;;1.45;77.88;98492.22;4166146;28;20210;-84
2023/04/05 05:17:33;;;;;;;13.70;10.52;;;;;;;1.61;78.28;98496.91;4173796;28;20297;-85
2023/04/05 05:19:36;;;;;;;15.05;10.52;;;;;;;1.78;77.76;98499.03;4191610;28;20210;-84
2023/04/05 05:21:39;;;;;;;13.18;10.05;;;;;;;1.89;77.59;98506.41;4186368;28;20267;-84
2023/04/05 05:23:42;;;;;;;15.90;9.43;;;;;;;2.03;77.50;98500.84;4170561;28;20295;-85
2023/04/05 05:25:46;;;;;;;11.85;9.13;;;;;;;2.15;76.25;98497.94;4164236;28;20206;-84
2023/04/05 05:27:50;;;;;;;11.73;9.63;;;;;;;2.28;75.96;98504.41;4182368;28;20205;-85
2023/04/05 05:29:56;;;;;;;13.43;10.15;;;;;;;2.43;76.01;98509.94;4187395;28;20694;-85
2023/04/05 05:32:01;;;;;;;15.68;10.70;;;;;;;2.58;75.87;98518.03;4160705;28;20214;-84
2023/04/05 05:34:05;;;;;;;14.77;11.00;;;;;;;2.70;75.55;98512.53;4166045;28;20221;-85
2023/04/05 05:36:08;;;;;;;13.98;10.35;;;;;;;2.82;75.14;98510.41;4182254;28;20218;-85
2023/04/05 05:38:12;;;;;;;15.77;10.68;;;;;;;2.95;75.11;98516.03;4191860;28;20209;-85
2023/04/05 05:40:16;;;;;;;13.65;10.55;;;;;;;3.10;74.65;98518.13;4190201;28;20228;-85
2023/04/05 05:42:20;;;;;;;14.75;11.65;;;;;;;3.22;74.00;98521.13;4166124;28;20214;-85
2023/04/05 05:44:23;;;;;;;24.05;10.18;;;;;;;3.33;73.72;98522.44;4160844;28;20230;-85
2023/04/05 05:46:26;;;;;;;14.88;10.93;;;;;;;3.48;72.78;98523.69;4177018;28;20217;-85
2023/04/05 05:48:32;;;;;;;16.75;11.15;;;;;;;3.61;72.69;98519.78;4176863;28;20647;-85
2023/04/05 05:50:35;;;;;;;14.15;10.85;;;;;;;3.76;72.11;98520.13;4158772;28;20559;-86
2023/04/05 05:52:38;;;;;;;18.58;12.48;;;;;;;3.90;71.99;98517.91;4180269;28;20205;-85
2023/04/05 05:54:41;;;;;;;16.42;10.93;;;;;;;4.03;72.38;98529.44;4183526;28;20287;-86
2023/04/05 05:56:44;;;;;;;13.07;10.38;;;;;;;4.18;71.42;98531.47;4177952;28;20209;-83
2023/04/05 05:58:48;;;;;;;14.77;10.55;;;;;;;4.36;71.21;98535.09;4186232;28;20228;-85
2023/04/05 06:00:55;;;;;;;14.07;10.70;;;;;;;4.54;70.45;98531.81;4186235;28;20202;-84
2023/04/05 06:02:58;;;;;;;14.30;11.05;;;;;;;4.68;71.48;98532.13;4162856;28;20194;-84
2023/04/05 06:05:04;;;;;;;12.75;10.30;;;;;;;4.80;71.03;98539.41;4167270;28;20294;-84
2023/04/05 06:07:07;;;;;;;15.63;11.73;;;;;;;4.92;70.24;98539.78;4187599;28;20206;-84
2023/04/05 06:09:10;;;;;;;13.68;10.65;;;;;;;5.03;68.95;98547.09;4183961;28;20216;-84
2023/04/05 06:11:17;;;;;;;15.98;10.85;;;;;;;5.11;69.13;98534.72;4172061;28;20264;-84
2023/04/05 06:13:20;;;;;;;13.75;11.80;;;;;;;5.27;69.42;98545.22;4173199;28;20210;-84
2023/04/05 06:15:23;;;;;;;16.05;12.80;;;;;;;5.44;69.17;98545.41;4182560;28;20218;-84
2023/04/05 06:17:27;;;;;;;15.63;12.13;;;;;;;5.59;68.91;98555.09;4167111;28;20201;-84
2023/04/05 06:19:30;;;;;;;17.70;14.48;;;;;;;5.70;69.92;98551.16;4184830;28;20209;-83
2023/04/05 06:21:35;;;;;;;17.20;13.90;;;;;;;5.79;68.93;98552.56;4172105;28;20205;-82
2023/04/05 06:23:39;;;;;;;14.10;11.32;;;;;;;5.96;67.72;98557.88;4177618;28;20576;-82
2023/04/05 06:25:43;;;;;;;15.85;11.85;;;;;;;6.13;67.37;98554.50;4172919;28;20275;-84
2023/04/05 06:27:46;;;;;;;15.60;11.65;;;;;;;6.29;66.96;98560.66;4183021;28;20213;-84
2023/04/05 06:29:49;;;;;;;15.38;11.73;;;;;;;6.40;67.78;98563.59;4179570;28;20665;-84
2023/04/05 06:31:53;;;;;;;18.90;10.63;;;;;;;6.45;66.77;98559.09;4180615;28;20670;-83
2023/04/05 06:33:56;;;;;;;14.52;11.05;;;;;;;6.54;66.60;98557.81;4178761;28;20683;-84
2023/04/05 06:35:59;;;;;;;13.52;10.80;;;;;;;6.63;67.16;98558.22;4189586;28;20209;-84
2023/04/05 06:38:03;;;;;;;13.43;12.02;;;;;;;6.81;66.93;98565.16;4189551;28;20197;-84
2023/04/05 06:40:08;;;;;;;13.60;10.43;;;;;;;6.93;67.48;98568.06;4182765;28;20207;-83
2023/04/05 06:42:11;;;;;;;12.32;10.30;;;;;;;7.11;66.79;98574.97;4167714;28;20703;-84
2023/04/05 06:44:20;;;;;;;12.88;10.93;;;;;;;7.13;64.89;98563.63;4200942;28;20291;-84
2023/04/05 06:46:23;;;;;;;11.00;9.40;;;;;;;7.26;65.35;98575.09;4183138;28;20206;-84
2023/04/05 06:48:28;;;;;;;11.82;9.50;;;;;;;7.31;64.30;98564.50;4178934;28;20229;-85
2023/04/05 06:50:31;;;;;;;10.75;9.00;;;;;;;7.41;64.66;98570.91;4184011;28;20206;-83
2023/04/05 06:52:35;;;;;;;10.93;8.85;;;;;;;7.52;63.48;98565.13;4172834;28;20652;-84
2023/04/05 06:54:39;;;;;;;18.92;9.52;;;;;;;7.62;63.19;98570.72;4184151;28;20217;-83
2023/04/05 06:56:42;;;;;;;11.48;9.70;;;;;;;7.75;62.01;98561.41;4183200;28;20246;-84
2023/04/05 06:58:45;;;;;;;12.52;8.73;;;;;;;7.84;61.40;98566.97;4175696;28;20893;-84
2023/04/05 07:00:49;;;;;;;12.70;9.32;;;;;;;7.87;62.44;98558.22;4181474;28;20199;-84
2023/04/05 07:02:52;;;;;;;13.20;9.43;;;;;;;7.94;60.85;98559.56;4183412;28;20236;-86
2023/04/05 07:04:59;;;;;;;11.10;9.90;;;;;;;8.13;62.29;98571.56;4185427;28;20240;-86
2023/04/05 07:07:02;;;;;;;10.27;9.25;;;;;;;8.24;61.12;98567.53;4187520;28;20216;-83
2023/04/05 07:09:06;;;;;;;12.55;9.50;;;;;;;8.40;62.06;98573.59;4172826;28;20843;-82
2023/04/05 07:11:10;;;;;;;10.43;8.73;;;;;;;8.55;60.37;98570.19;4178308;28;20679;-81
2023/04/05 07:13:13;;;;;;;11.52;8.35;;;;;;;8.74;62.32;98574.34;4156374;28;20210;-83
2023/04/05 07:15:17;;;;;;;12.27;8.63;;;;;;;8.90;59.67;98577.81;4183615;28;20203;-83
2023/04/05 07:17:20;;;;;;;8.95;8.15;;;;;;;8.97;60.85;98582.56;4186496;28;20783;-83
2023/04/05 07:19:23;;;;;;;11.48;8.15;;;;;;;9.00;60.11;98573.78;4176227;28;20744;-83
2023/04/05 07:21:27;;;;;;;12.82;8.15;;;;;;;9.14;59.98;98581.66;4184447;28;20448;-83
2023/04/05 07:23:30;;;;;;;11.25;8.32;;;;;;;9.36;60.33;98576.97;4187289;28;20262;-83
2023/04/05 07:25:33;;;;;;;10.27;8.50;;;;;;;9.53;59.63;98575.94;4174800;28;20243;-83
2023/04/05 07:27:38;;;;;;;9.13;8.15;;;;;;;9.63;58.92;98578.84;4178686;28;20713;-83
2023/04/05 07:29:42;;;;;;;11.30;8.20;;;;;;;9.78;58.71;98577.97;4177062;28;20561;-83
2023/04/05 07:31:47;;;;;;;11.35;9.13;;;;;;;9.91;58.42;98583.22;4164676;28;20217;-84
2023/04/05 07:33:50;;;;;;;10.68;9.15;;;;;;;10.01;59.86;98576.59;4170408;28;20294;-83
2023/04/05 07:35:54;;;;;;;10.68;8.27;;;;;;;10.12;58.37;98581.19;4176077;28;20209;-84
2023/04/05 07:37:57;;;;;;;10.02;8.65;;;;;;;10.30;59.55;98580.94;4187526;28;20211;-83
2023/04/05 07:40:00;;;;;;;8.75;7.90;;;;;;;10.48;58.81;98579.84;4172333;28;20296;-83
2023/04/05 07:42:04;;;;;;;9.82;8.40;;;;;;;10.56;58.18;98582.81;4172703;28;20202;-83
2023/04/05 07:44:08;;;;;;;11.30;7.38;;;;;;;10.77;58.76;98595.38;4184352;28;20202;-83
2023/04/05 07:46:11;;;;;;;10.30;8.27;;;;;;;10.86;56.47;98593.03;4168196;28;20237;-83
2023/04/05 07:48:14;;;;;;;9.38;8.07;;;;;;;10.94;57.82;98595.19;4186109;28;20248;-83
2023/04/05 07:50:17;;;;;;;11.83;8.63;;;;;;;11.06;57.65;98591.81;4188676;28;20231;-83
2023/04/05 07:52:21;;;;;;;9.83;8.77;;;;;;;11.11;55.69;98585.38;4176020;28;20682;-83
2023/04/05 07:54:24;;;;;;;9.87;8.87;;;;;;;11.18;56.27;98597.09;4174344;28;20612;-83
2023/04/05 07:56:27;;;;;;;10.52;8.00;;;;;;;11.38;57.23;98586.22;4190552;28;21042;-84
2023/04/05 07:58:31;;;;;;;9.40;8.25;;;;;;;11.55;56.71;98584.25;4174626;28;20202;-84
2023/04/05 08:00:35;;;;;;;9.90;8.07;;;;;;;11.75;57.60;98596.03;4184694;28;20197;-83
2023/04/05 08:02:39;;;;;;;8.60;7.70;;;;;;;11.85;56.36;98593.56;4178434;28;21304;-83
2023/04/05 08:04:42;;;;;;;8.93;8.03;;;;;;;11.96;55.43;98593.69;4181923;28;20716;-83
2023/04/05 08:06:46;;;;;;;8.70;7.80;;;;;;;11.89;53.49;98587.22;4181526;28;21055;-83
2023/04/05 08:08:49;;;;;;;9.53;8.50;;;;;;;11.83;52.40;98586.75;4194960;28;20757;-83
2023/04/05 08:10:52;;;;;;;8.13;7.30;;;;;;;11.80;52.84;98590.41;4173103;28;20774;-83
2023/04/05 08:12:55;;;;;;;9.27;8.00;;;;;;;11.75;53.42;98585.59;4185602;28;20636;-83
2023/04/05 08:14:58;;;;;;;8.60;7.77;;;;;;;11.79;51.85;98588.75;4188385;28;21179;-83
2023/04/05 08:17:02;;;;;;;8.37;7.47;;;;;;;11.88;52.96;98588.13;4193863;28;20628;-83
2023/04/05 08:19:06;;;;;;;10.40;8.03;;;;;;;11.89;50.09;98583.75;4174318;28;20661;-84
2023/04/05 08:21:09;;;;;;;8.37;7.57;;;;;;;11.79;50.71;98578.28;4165502;28;20648;-84
2023/04/05 08:23:12;;;;;;;8.93;8.03;;;;;;;11.91;51.53;98576.66;4165877;28;20773;-84
2023/04/05 08:25:15;;;;;;;7.93;7.23;;;;;;;11.92;53.10;98573.94;4193175;28;20679;-84
2023/04/05 08:27:18;;;;;;;9.63;7.90;;;;;;;12.03;55.23;98576.69;4187995;28;20743;-84
2023/04/05 08:29:21;;;;;;;8.03;7.33;;;;;;;12.22;53.19;98581.50;4167849;28;20640;-84
2023/04/05 08:31:25;;;;;;;8.67;7.30;;;;;;;12.27;51.12;98570.63;4177314;28;20635;-83
2023/04/05 08:33:30;;;;;;;8.77;7.90;;;;;;;12.42;51.81;98579.25;4179069;28;20640;-84
2023/04/05 08:35:35;;;;;;;9.17;7.47;;;;;;;12.55;51.59;98578.28;4174849;28;21011;-84
2023/04/05 08:37:38;;;;;;;9.07;7.43;;;;;;;12.59;51.98;98574.53;4186955;28;21378;-84
2023/04/05 08:39:42;;;;;;;8.40;7.60;;;;;;;12.73;51.10;98571.78;4180836;28;20636;-84
2023/04/05 08:41:50;;;;;;;8.50;7.10;;;;;;;12.89;49.41;98581.13;4168592;28;21125;-84
2023/04/05 08:43:57;;;;;;;8.47;7.67;;;;;;;12.86;50.40;98573.47;4188152;28;20680;-84
2023/04/05 08:46:01;;;;;;;8.00;7.20;;;;;;;12.89;51.25;98575.88;4182092;28;21219;-84
2023/04/05 08:48:04;;;;;;;8.53;7.40;;;;;;;13.05;52.62;98573.88;4172189;28;21094;-84
2023/04/05 08:50:12;;;;;;;9.97;8.50;;;;;;;13.16;51.88;98579.19;4186089;28;20685;-84
2023/04/05 08:52:15;;;;;;;10.97;8.10;;;;;;;13.28;51.62;98581.78;4182364;28;20643;-86
2023/04/05 08:54:19;;;;;;;9.43;7.10;;;;;;;13.44;49.67;98579.75;4171316;28;20643;-86
2023/04/05 08:56:25;;;;;;;8.70;7.80;;;;;;;13.45;50.51;98585.81;4179332;28;20630;-86
2023/04/05 08:58:32;;;;;;;8.93;7.97;;;;;;;13.45;48.92;98581.38;4184941;28;21269;-86
2023/04/05 09:00:36;;;;;;;9.37;8.43;;;;;;;13.58;51.25;98590.06;4167638;28;20649;-85
2023/04/05 09:02:39;;;;;;;12.73;9.37;;;;;;;13.78;49.46;98587.63;4170815;28;20671;-86
2023/04/05 09:04:44;;;;;;;9.07;8.10;;;;;;;13.84;51.89;98589.00;4171183;28;20672;-86
2023/04/05 09:06:50;;;;;;;9.10;8.20;;;;;;;13.82;51.91;98588.28;4183754;28;20661;-86
2023/04/05 09:08:53;;;;;;;8.90;8.00;;;;;;;13.66;51.43;98591.16;4169297;28;20636;-86
2023/04/05 09:10:57;;;;;;;9.60;8.60;;;;;;;13.68;51.87;98585.81;4163739;28;20751;-86
2023/04/05 09:13:02;;;;;;;8.93;8.00;;;;;;;13.61;50.38;98581.97;4171146;28;20636;-86
2023/04/05 09:15:06;;;;;;;8.80;7.93;;;;;;;13.56;49.81;98586.72;4183268;28;20639;-86
2023/04/05 09:17:09;;;;;;;8.13;7.33;;;;;;;13.55;49.70;98576.34;4187778;28;21032;-86
2023/04/05 09:19:13;;;;;;;9.60;8.23;;;;;;;13.46;47.54;98569.97;4189698;28;21227;-85
2023/04/05 09:21:17;;;;;;;8.30;7.50;;;;;;;13.31;46.50;98570.25;4187049;28;20801;-85
2023/04/05 09:23:21;;;;;;;8.63;7.80;;;;;;;13.27;48.63;98572.22;4183281;28;20651;-86
2023/04/05 09:25:35;;;;;;;8.80;7.90;;;;;;;13.48;51.27;98572.47;4176079;28;20736;-86
2023/04/05 09:27:54;;;;;;;8.73;7.67;;;;;;;13.64;50.39;98578.31;4181365;28;20627;-86
2023/04/05 09:29:57;;;;;;;8.80;7.90;;;;;;;13.68;48.80;98578.78;4167724;28;20699;-86
2023/04/05 09:32:01;;;;;;;8.30;7.50;;;;;;;13.76;48.68;98579.06;4171048;28;20634;-86
2023/04/05 09:34:05;;;;;;;10.63;8.13;;;;;;;13.78;48.99;98569.28;4182741;28;20628;-86
2023/04/05 09:36:08;;;;;;;9.00;7.73;;;;;;;13.84;48.60;98568.00;4169281;28;20637;-86
2023/04/05 09:38:11;;;;;;;8.20;7.40;;;;;;;13.77;47.98;98566.78;4170075;28;20656;-86
2023/04/05 09:40:16;;;;;;;8.13;7.40;;;;;;;13.72;46.92;98563.66;4187745;28;20628;-85
2023/04/05 09:42:21;;;;;;;9.27;7.97;;;;;;;13.16;45.31;98555.63;4171146;28;20720;-86
2023/04/05 09:44:25;;;;;;;9.00;8.03;;;;;;;12.45;46.28;98552.88;4174220;28;20738;-86
2023/04/05 09:46:32;;;;;;;7.93;7.17;;;;;;;11.90;46.69;98541.81;4161465;28;21217;-85
2023/04/05 09:48:46;;;;;;;7.93;7.13;;;;;;;11.49;46.92;98539.44;4183166;28;20730;-86
2023/04/05 09:50:49;;;;;;;8.27;7.43;;;;;;;11.41;47.83;98539.03;4159769;28;21234;-86